ダカール の空港の天気 - METARとTAF

レオポール・セダール・サンゴール国際空港 ( GOOY / DKR ) - セネガル ダカール
飛行場実況気象(Metar)
観測時間01/23 03:00 GMT (01/23 03:00 UTC)
風向・風速北東 4m/s
視程4000m
天気現象風塵
なし
気温19℃
湿度73%
気圧1012hPa
METARGOOY 230300Z 04007KT 4000 DU NSC 19/14 Q1012
過去の天気等 Google飛行場航空写真 Wunderground天気予報

過去48時間のMETAR

飛行場予報(TAF)
発表時間: 1/23 05:30 GMT (1/23 05:30 UTC)
予報対象時間: 23日6時 GMT ~ 24日12時 GMT
風向・風速北北東 7m/s
視程5,000m
天気現象風塵
なし
TAF GOOY 230530Z 2306/2412 02014KT 5000 DU NSC